Time;durP1;ratioP1;P1;durP2;ratioP2;P2;SDS_P1;SDS_P2;PMS_P1;PMS_P2;Temp;Humidity;BMP_temperature;BMP_pressure;BME280_temperature;BME280_humidity;BME280_pressure;Samples;Min_cycle;Max_cycle;Signal;HPM_P1;HPM_P2
2021/04/21 00:01:27;;;;;;;86.50;39.70;;;5.80;99.90;;;;;;4434434;28;657557;-68
2021/04/21 00:04:16;;;;;;;101.93;41.20;;;5.80;99.90;;;;;;4450654;28;657850;-67
2021/04/21 00:07:03;;;;;;;81.00;39.17;;;5.80;99.90;;;;;;4426589;28;658479;-67
2021/04/21 00:09:51;;;;;;;83.23;38.67;;;5.80;99.90;;;;;;4447060;28;658571;-67
2021/04/21 00:12:38;;;;;;;84.33;39.87;;;5.80;99.90;;;;;;4424080;28;657576;-67
2021/04/21 00:15:25;;;;;;;83.23;40.40;;;5.80;99.90;;;;;;4447076;28;657918;-67
2021/04/21 00:18:13;;;;;;;77.63;37.87;;;5.70;99.90;;;;;;4428890;28;657612;-67
2021/04/21 00:21:01;;;;;;;86.47;37.60;;;5.70;99.90;;;;;;4449971;28;658189;-67
2021/04/21 00:23:48;;;;;;;79.63;36.27;;;5.60;99.90;;;;;;4427454;28;658264;-67
2021/04/21 00:26:35;;;;;;;78.87;39.50;;;5.50;99.90;;;;;;4446416;28;658277;-67
2021/04/21 00:29:22;;;;;;;79.03;40.80;;;5.50;99.90;;;;;;4432123;28;658166;-68
2021/04/21 00:32:09;;;;;;;87.57;43.60;;;5.50;99.90;;;;;;4446618;28;656932;-68
2021/04/21 00:34:56;;;;;;;87.60;40.57;;;5.50;99.90;;;;;;4438238;28;657918;-67
2021/04/21 00:37:44;;;;;;;83.47;39.70;;;5.50;99.90;;;;;;4426845;28;657440;-67
2021/04/21 00:40:37;;;;;;;81.78;40.33;;;5.50;99.90;;;;;;4446685;28;657348;-67
2021/04/21 00:43:27;;;;;;;84.90;39.97;;;5.50;99.90;;;;;;4422898;28;657930;-67
2021/04/21 00:46:19;;;;;;;86.23;40.67;;;5.50;99.90;;;;;;4423445;28;658537;-68
2021/04/21 00:49:09;;;;;;;86.60;40.13;;;5.50;99.90;;;;;;4427665;28;657776;-67
2021/04/21 00:51:58;;;;;;;82.40;38.10;;;5.50;99.90;;;;;;4406776;28;657654;-67
2021/04/21 00:54:50;;;;;;;79.07;39.03;;;5.40;99.90;;;;;;4427477;28;658915;-67
2021/04/21 00:57:43;;;;;;;84.50;38.57;;;5.40;99.90;;;;;;4401019;28;657799;-69
2021/04/21 01:00:32;;;;;;;77.30;37.87;;;5.40;99.90;;;;;;4406317;28;658840;-67
2021/04/21 01:03:20;;;;;;;77.10;39.57;;;5.40;99.90;;;;;;4410369;28;657859;-67
2021/04/21 01:06:09;;;;;;;76.82;37.33;;;5.30;99.90;;;;;;4414322;28;657459;-68
2021/04/21 01:08:57;;;;;;;73.13;35.27;;;5.30;99.90;;;;;;4428365;28;657856;-67
2021/04/21 01:11:46;;;;;;;84.87;39.93;;;5.20;99.90;;;;;;4410084;28;658065;-68
2021/04/21 01:14:34;;;;;;;76.60;36.37;;;5.10;99.90;;;;;;4409622;28;658003;-68
2021/04/21 01:17:22;;;;;;;74.43;36.07;;;5.10;99.90;;;;;;4428898;28;657758;-67
2021/04/21 01:20:19;;;;;;;74.93;36.40;;;5.00;99.90;;;;;;4406139;28;657739;-67
2021/04/21 01:23:33;;;;;;;72.60;36.33;;;5.00;99.90;;;;;;4408848;28;657352;-67
2021/04/21 01:27:04;;;;;;;78.43;36.40;;;4.90;99.90;;;;;;4386078;28;658178;-67
2021/04/21 01:29:53;;;;;;;74.17;34.80;;;4.90;99.90;;;;;;4331044;28;658003;-67
2021/04/21 01:32:40;;;;;;;66.13;34.70;;;4.90;99.90;;;;;;4338176;28;657759;-67
2021/04/21 01:35:27;;;;;;;65.60;34.70;;;4.80;99.90;;;;;;4341889;28;657402;-68
2021/04/21 01:38:14;;;;;;;77.03;35.67;;;4.80;99.90;;;;;;4361039;28;658029;-67
2021/04/21 01:41:04;;;;;;;73.17;35.90;;;4.70;99.90;;;;;;4360701;28;657306;-67
2021/04/21 01:43:58;;;;;;;78.50;38.43;;;4.70;99.90;;;;;;4341747;28;657956;-67
2021/04/21 01:46:47;;;;;;;71.53;35.97;;;4.70;99.90;;;;;;4337600;28;657758;-67
2021/04/21 01:49:55;;;;;;;74.47;36.77;;;4.80;99.90;;;;;;4341743;28;658404;-67
2021/04/21 01:52:46;;;;;;;80.60;38.43;;;4.80;99.90;;;;;;4319828;28;658353;-69
2021/04/21 01:55:53;;;;;;;78.27;37.57;;;4.80;99.90;;;;;;4339078;28;658341;-68
2021/04/21 01:59:00;;;;;;;77.63;38.73;;;4.80;99.90;;;;;;4314954;28;657787;-68
2021/04/21 02:01:51;;;;;;;76.73;38.17;;;4.80;99.90;;;;;;4328897;28;657892;-68
2021/04/21 02:04:50;;;;;;;75.83;37.17;;;4.80;99.90;;;;;;4395306;28;657739;-67
2021/04/21 02:07:45;;;;;;;82.47;38.73;;;4.80;99.90;;;;;;4372169;28;657955;-68
2021/04/21 02:10:40;;;;;;;78.17;39.40;;;4.80;99.90;;;;;;4372948;28;657924;-68
2021/04/21 02:13:37;;;;;;;85.10;39.93;;;4.90;99.90;;;;;;4374534;28;657950;-69
2021/04/21 02:16:25;;;;;;;78.47;40.27;;;4.90;99.90;;;;;;4368984;28;658610;-67
2021/04/21 02:19:30;;;;;;;85.37;41.77;;;5.00;99.90;;;;;;4402947;28;657479;-69
2021/04/21 02:22:36;;;;;;;82.32;39.78;;;5.00;99.90;;;;;;4394731;28;657745;-69
2021/04/21 02:25:25;;;;;;;84.73;39.23;;;5.00;99.90;;;;;;4394985;28;657564;-68
2021/04/21 02:28:16;;;;;;;73.83;40.20;;;5.00;99.90;;;;;;4398595;28;657635;-69
2021/04/21 02:31:08;;;;;;;82.37;41.23;;;5.00;99.90;;;;;;4394855;28;658023;-67
2021/04/21 02:34:00;;;;;;;88.53;41.53;;;5.10;99.90;;;;;;4394244;28;658176;-68
2021/04/21 02:36:53;;;;;;;87.00;43.43;;;5.00;99.90;;;;;;4394087;28;657647;-69
2021/04/21 02:39:44;;;;;;;89.27;41.67;;;5.10;99.90;;;;;;4390931;28;658211;-67
2021/04/21 02:42:37;;;;;;;90.77;43.40;;;5.10;99.90;;;;;;4394732;28;657653;-67
2021/04/21 02:45:28;;;;;;;75.97;39.77;;;5.20;99.90;;;;;;4390120;28;657722;-68
2021/04/21 02:48:18;;;;;;;86.83;42.43;;;5.20;99.90;;;;;;4390523;28;658809;-68
2021/04/21 02:51:08;;;;;;;87.47;44.07;;;5.20;99.90;;;;;;4390256;28;658167;-68
2021/04/21 02:54:00;;;;;;;98.80;45.80;;;5.20;99.90;;;;;;4394218;28;657367;-68
2021/04/21 02:56:53;;;;;;;96.43;47.17;;;5.30;99.90;;;;;;4383589;28;657480;-69
2021/04/21 02:59:43;;;;;;;83.75;41.42;;;5.40;99.90;;;;;;4394593;28;658708;-67
2021/04/21 03:02:32;;;;;;;85.70;43.43;;;5.40;99.90;;;;;;4390575;28;658341;-68
2021/04/21 03:05:23;;;;;;;100.60;47.77;;;5.40;99.90;;;;;;4392663;28;657788;-68
2021/04/21 03:08:13;;;;;;;104.90;51.53;;;5.40;99.90;;;;;;4390707;28;659025;-67
2021/04/21 03:11:04;;;;;;;102.73;49.77;;;5.50;99.90;;;;;;4390322;28;659155;-67
2021/04/21 03:13:53;;;;;;;99.03;48.57;;;5.60;99.90;;;;;;4381523;28;658728;-68
2021/04/21 03:16:42;;;;;;;102.73;49.07;;;5.70;99.90;;;;;;4395097;28;658768;-68
2021/04/21 03:19:33;;;;;;;93.87;44.73;;;5.80;99.90;;;;;;4394204;28;658825;-68
2021/04/21 03:22:21;;;;;;;104.90;50.60;;;5.90;99.90;;;;;;4391200;28;657758;-68
2021/04/21 03:25:10;;;;;;;114.47;54.50;;;5.90;99.90;;;;;;4393307;28;659032;-68
2021/04/21 03:27:59;;;;;;;103.63;50.17;;;6.00;99.90;;;;;;4396795;28;658936;-69
2021/04/21 03:30:46;;;;;;;97.13;47.50;;;6.00;99.90;;;;;;4411198;28;658737;-68
2021/04/21 03:33:34;;;;;;;99.33;47.60;;;6.00;99.90;;;;;;4393597;28;657754;-68
2021/04/21 03:36:21;;;;;;;87.03;45.33;;;6.10;99.90;;;;;;4413337;28;658480;-68
2021/04/21 03:39:08;;;;;;;89.77;45.00;;;6.10;99.90;;;;;;4394136;28;658228;-68
2021/04/21 03:41:55;;;;;;;96.10;47.30;;;6.10;99.90;;;;;;4413544;28;658153;-67
2021/04/21 03:44:43;;;;;;;83.10;45.08;;;6.10;99.90;;;;;;4394218;28;657859;-69
2021/04/21 03:47:30;;;;;;;96.47;45.63;;;6.10;99.90;;;;;;4412758;28;658381;-68
2021/04/21 03:50:17;;;;;;;86.77;45.07;;;6.20;99.90;;;;;;4393557;28;658118;-68
2021/04/21 03:53:05;;;;;;;93.93;44.20;;;6.20;99.90;;;;;;4416755;28;657419;-68
2021/04/21 03:55:55;;;;;;;89.03;43.43;;;6.20;99.90;;;;;;4395267;28;657764;-70
2021/04/21 03:58:42;;;;;;;93.30;45.07;;;6.20;99.90;;;;;;4416862;28;656840;-68
2021/04/21 04:01:29;;;;;;;83.27;40.50;;;6.20;99.90;;;;;;4393224;28;658087;-68
2021/04/21 04:04:17;;;;;;;84.50;41.57;;;6.20;99.90;;;;;;4411932;28;657483;-67
2021/04/21 04:07:06;;;;;;;86.27;43.53;;;6.20;99.90;;;;;;4376909;28;658011;-67
2021/04/21 04:09:53;;;;;;;86.10;41.03;;;6.20;99.90;;;;;;4393695;28;657457;-68
2021/04/21 04:12:40;;;;;;;75.43;37.80;;;6.20;99.90;;;;;;4415982;28;658631;-67
2021/04/21 04:15:27;;;;;;;72.57;38.17;;;6.20;99.90;;;;;;4393084;28;657702;-68
2021/04/21 04:18:15;;;;;;;82.17;41.33;;;6.30;99.90;;;;;;4411790;28;658200;-68
2021/04/21 04:21:02;;;;;;;79.07;41.67;;;6.30;99.90;;;;;;4387443;28;657917;-68
2021/04/21 04:23:49;;;;;;;81.73;41.13;;;6.30;99.90;;;;;;4411646;28;657993;-68
2021/04/21 04:26:37;;;;;;;79.20;41.07;;;6.40;99.90;;;;;;4410773;28;657678;-67
2021/04/21 04:29:24;;;;;;;83.67;43.57;;;6.40;99.90;;;;;;4393117;28;657867;-68
2021/04/21 04:32:12;;;;;;;80.73;43.30;;;6.40;99.90;;;;;;4416169;28;657928;-67
2021/04/21 04:35:00;;;;;;;84.80;43.37;;;6.50;99.90;;;;;;4393145;28;658467;-67
2021/04/21 04:37:47;;;;;;;79.30;43.50;;;6.50;99.90;;;;;;4392664;28;657373;-69
2021/04/21 04:40:35;;;;;;;76.90;40.85;;;6.50;99.90;;;;;;4415848;28;658110;-68
2021/04/21 04:43:23;;;;;;;81.90;41.70;;;6.50;99.90;;;;;;4405073;28;658059;-69
2021/04/21 04:46:10;;;;;;;78.50;40.13;;;6.60;99.90;;;;;;4414953;28;658389;-68
2021/04/21 04:49:00;;;;;;;79.83;39.33;;;6.70;99.90;;;;;;4398352;28;658213;-69
2021/04/21 04:51:48;;;;;;;69.60;36.87;;;6.70;99.90;;;;;;4392841;28;657812;-68
2021/04/21 04:54:36;;;;;;;70.63;37.10;;;6.90;99.90;;;;;;4411469;28;658714;-67
2021/04/21 04:57:23;;;;;;;63.63;36.20;;;6.90;99.90;;;;;;4392661;28;658099;-67
2021/04/21 05:00:11;;;;;;;71.20;34.00;;;7.00;99.90;;;;;;4416465;28;658021;-67
2021/04/21 05:03:00;;;;;;;60.28;33.08;;;7.10;99.90;;;;;;4413875;28;658155;-68
2021/04/21 05:05:47;;;;;;;67.47;30.05;;;7.20;99.90;;;;;;4407434;28;657813;-69
2021/04/21 05:08:40;;;;;;;58.92;30.40;;;7.20;99.90;;;;;;4428129;28;657475;-67
2021/04/21 05:11:27;;;;;;;55.23;29.73;;;7.20;99.90;;;;;;4376379;28;657221;-69
2021/04/21 05:14:16;;;;;;;55.40;28.13;;;7.30;99.90;;;;;;4436784;28;657369;-67
2021/04/21 05:17:46;;;;;;;56.27;28.53;;;7.30;99.90;;;;;;4406805;28;657606;-67
2021/04/21 05:21:15;;;;;;;56.00;28.58;;;7.40;99.90;;;;;;4386448;28;658134;-68
2021/04/21 05:24:35;;;;;;;56.30;29.73;;;7.50;99.90;;;;;;4317022;28;658049;-69
2021/04/21 05:28:00;;;;;;;55.60;29.37;;;7.50;99.90;;;;;;4317538;28;657657;-70
2021/04/21 05:31:17;;;;;;;55.93;29.00;;;7.60;99.90;;;;;;4319073;28;658507;-68
2021/04/21 05:35:07;;;;;;;53.67;29.20;;;7.70;99.90;;;;;;4335948;28;657848;-67
2021/04/21 05:38:32;;;;;;;55.73;29.83;;;7.70;99.90;;;;;;4306860;28;658226;-67
2021/04/21 05:41:59;;;;;;;55.90;28.73;;;7.70;99.90;;;;;;4341375;28;657731;-67
2021/04/21 05:45:19;;;;;;;52.47;29.03;;;7.80;99.90;;;;;;4330170;28;658080;-67
2021/04/21 05:48:30;;;;;;;57.03;29.53;;;7.90;99.90;;;;;;4329399;28;658423;-67
2021/04/21 05:51:32;;;;;;;54.47;29.30;;;8.00;99.90;;;;;;4317660;28;658170;-69
2021/04/21 05:54:57;;;;;;;48.83;27.60;;;8.00;99.90;;;;;;4338624;28;658608;-67
2021/04/21 05:57:57;;;;;;;50.20;27.37;;;8.00;99.90;;;;;;4275251;29;657911;-74
2021/04/21 06:01:23;;;;;;;50.33;28.57;;;8.10;99.90;;;;;;4273905;29;658502;-74
2021/04/21 06:04:11;;;;;;;54.17;29.57;;;8.20;99.90;;;;;;4336175;28;657386;-76
2021/04/21 06:07:07;;;;;;;51.93;27.83;;;8.30;99.90;;;;;;4325184;28;657723;-73
2021/04/21 06:09:54;;;;;;;53.90;28.50;;;8.20;99.90;;;;;;4314703;28;657886;-74
2021/04/21 06:12:41;;;;;;;54.00;28.13;;;8.20;99.90;;;;;;4354722;28;657665;-74
2021/04/21 06:15:30;;;;;;;49.90;26.63;;;8.30;99.90;;;;;;4339663;28;658104;-73
2021/04/21 06:18:17;;;;;;;48.30;26.10;;;8.30;99.90;;;;;;4331926;28;657574;-71
2021/04/21 06:21:14;;;;;;;48.10;25.53;;;8.40;99.90;;;;;;4363732;28;657234;-73
2021/04/21 06:24:01;;;;;;;50.80;24.52;;;8.50;99.90;;;;;;4337393;28;657497;-73
2021/04/21 06:26:48;;;;;;;50.20;26.37;;;8.60;99.90;;;;;;4340554;28;658324;-74
2021/04/21 06:29:35;;;;;;;50.13;26.07;;;8.70;99.90;;;;;;4359260;28;658668;-74
2021/04/21 06:32:22;;;;;;;56.10;26.93;;;8.60;99.90;;;;;;4340695;28;658382;-71
2021/04/21 06:35:10;;;;;;;51.77;27.27;;;8.60;99.90;;;;;;4354724;28;658262;-73
2021/04/21 06:37:58;;;;;;;53.20;24.97;;;8.70;99.90;;;;;;4373786;28;658118;-71
2021/04/21 06:40:45;;;;;;;50.83;25.83;;;8.80;99.90;;;;;;4420131;28;658670;-74
2021/04/21 06:43:34;;;;;;;46.77;24.70;;;9.00;99.90;;;;;;4410448;28;658070;-72
2021/04/21 06:46:21;;;;;;;55.67;27.20;;;9.00;99.90;;;;;;4423056;28;657766;-74
2021/04/21 06:49:08;;;;;;;51.97;28.10;;;9.00;99.90;;;;;;4408481;28;657821;-73
2021/04/21 06:51:55;;;;;;;46.27;26.40;;;9.10;99.90;;;;;;4429136;28;658308;-74
2021/04/21 06:54:43;;;;;;;48.50;25.75;;;9.20;99.90;;;;;;4403095;28;657328;-70
2021/04/21 06:57:30;;;;;;;41.70;21.77;;;9.20;99.90;;;;;;4430088;28;659351;-73
2021/04/21 07:00:18;;;;;;;47.28;23.42;;;9.20;99.90;;;;;;4401925;28;657668;-71
2021/04/21 07:03:05;;;;;;;49.10;23.90;;;9.20;99.90;;;;;;4423244;28;658227;-72
2021/04/21 07:05:52;;;;;;;41.77;23.10;;;9.10;99.90;;;;;;4395839;28;657802;-72
2021/04/21 07:08:39;;;;;;;49.27;23.63;;;9.20;99.90;;;;;;4429724;28;657902;-74
2021/04/21 07:11:27;;;;;;;46.93;22.33;;;9.20;99.90;;;;;;4428534;28;657894;-74
2021/04/21 07:14:18;;;;;;;39.38;21.10;;;9.50;99.90;;;;;;4405044;28;657564;-74
2021/04/21 07:17:05;;;;;;;42.27;21.23;;;9.70;99.90;;;;;;4403986;28;658626;-74
2021/04/21 07:19:52;;;;;;;35.67;21.17;;;9.80;99.90;;;;;;4418849;28;657550;-73
2021/04/21 07:22:38;;;;;;;47.00;23.07;;;9.70;99.90;;;;;;4409389;28;657955;-73
2021/04/21 07:25:26;;;;;;;45.00;21.73;;;9.80;99.90;;;;;;4418796;28;658215;-73
2021/04/21 07:28:14;;;;;;;39.40;20.77;;;9.80;99.90;;;;;;4400152;28;657670;-73
2021/04/21 07:31:09;;;;;;;43.17;21.77;;;10.00;99.90;;;;;;4424124;28;657950;-74
2021/04/21 07:33:56;;;;;;;40.47;20.77;;;10.30;99.90;;;;;;4405888;28;658771;-74
2021/04/21 07:36:44;;;;;;;45.10;21.80;;;10.70;99.90;;;;;;4400567;28;658420;-74
2021/04/21 07:39:32;;;;;;;37.67;20.97;;;11.00;99.90;;;;;;4418561;28;658257;-74
2021/04/21 07:42:19;;;;;;;36.83;20.53;;;11.20;99.90;;;;;;4399643;28;659020;-73
2021/04/21 07:45:08;;;;;;;36.90;21.20;;;11.30;99.90;;;;;;4429274;28;658115;-74
2021/04/21 07:47:55;;;;;;;39.10;21.03;;;11.20;99.90;;;;;;4400543;28;659365;-74
2021/04/21 07:50:42;;;;;;;36.80;21.93;;;11.30;99.90;;;;;;4424695;28;658594;-70
2021/04/21 07:53:29;;;;;;;36.43;21.37;;;11.40;99.90;;;;;;4426809;28;658529;-74
2021/04/21 07:56:16;;;;;;;36.83;21.73;;;11.60;99.90;;;;;;4420285;28;658823;-74
2021/04/21 07:59:14;;;;;;;33.67;19.87;;;11.70;99.90;;;;;;4405822;28;658655;-73
2021/04/21 08:02:09;;;;;;;36.03;20.63;;;11.70;99.90;;;;;;4392576;28;659011;-73
2021/04/21 08:04:57;;;;;;;34.50;18.20;;;11.60;99.90;;;;;;4406559;28;659012;-74
2021/04/21 08:07:53;;;;;;;29.70;17.47;;;11.60;99.90;;;;;;4387747;28;659569;-73
2021/04/21 08:10:40;;;;;;;29.70;18.03;;;11.40;99.90;;;;;;4402160;28;658797;-74
2021/04/21 08:13:39;;;;;;;30.87;18.30;;;11.30;99.90;;;;;;4391368;28;658666;-71
2021/04/21 08:16:26;;;;;;;35.87;19.10;;;11.20;99.90;;;;;;4399023;28;658922;-72
2021/04/21 08:19:16;;;;;;;34.83;20.17;;;11.10;99.90;;;;;;4407941;28;658781;-71
2021/04/21 08:22:03;;;;;;;33.70;20.37;;;11.10;99.90;;;;;;4409159;28;658313;-71
2021/04/21 08:24:50;;;;;;;43.20;20.50;;;11.10;99.90;;;;;;4422354;28;659203;-72
2021/04/21 08:27:37;;;;;;;36.85;19.83;;;11.30;99.90;;;;;;4413821;28;658333;-69
2021/04/21 08:30:25;;;;;;;36.58;20.77;;;11.60;99.90;;;;;;4432502;28;658440;-71
2021/04/21 08:33:12;;;;;;;35.03;18.43;;;12.10;99.90;;;;;;4404483;28;658515;-71
2021/04/21 08:36:01;;;;;;;32.33;18.47;;;12.60;99.90;;;;;;4424469;28;659399;-73
2021/04/21 08:38:48;;;;;;;31.53;18.93;;;13.00;99.90;;;;;;4407293;28;658994;-72
2021/04/21 08:41:38;;;;;;;36.10;18.10;;;13.20;99.90;;;;;;4431333;28;659769;-72
2021/04/21 08:44:30;;;;;;;29.30;15.97;;;13.30;99.90;;;;;;4393138;28;659058;-73
2021/04/21 08:47:18;;;;;;;29.80;16.60;;;13.30;99.90;;;;;;4400723;28;658484;-72
2021/04/21 08:50:05;;;;;;;27.30;15.63;;;13.50;99.90;;;;;;4417659;28;659434;-74
2021/04/21 08:52:56;;;;;;;27.10;14.75;;;13.80;99.90;;;;;;4394232;28;658561;-71
2021/04/21 08:55:43;;;;;;;27.73;14.53;;;14.20;99.90;;;;;;4401157;28;659201;-72
2021/04/21 08:58:29;;;;;;;26.20;14.67;;;14.40;99.90;;;;;;4420404;28;659274;-72
2021/04/21 09:01:17;;;;;;;22.20;12.50;;;14.50;99.90;;;;;;4427302;28;658935;-72
2021/04/21 09:04:04;;;;;;;22.93;13.43;;;14.80;99.90;;;;;;4417268;28;659497;-73
2021/04/21 09:06:51;;;;;;;17.57;10.73;;;15.10;99.90;;;;;;4444784;28;658551;-73
2021/04/21 09:09:39;;;;;;;18.50;12.53;;;14.90;99.90;;;;;;4421259;28;658822;-73
2021/04/21 09:12:26;;;;;;;28.33;14.40;;;14.70;99.90;;;;;;4442400;28;659080;-72
2021/04/21 09:15:14;;;;;;;26.13;14.93;;;14.50;99.90;;;;;;4425556;28;658875;-72
2021/04/21 09:18:01;;;;;;;27.20;15.13;;;14.10;99.90;;;;;;4439138;28;658995;-72
2021/04/21 09:20:48;;;;;;;25.33;14.87;;;14.00;99.90;;;;;;4425380;28;658680;-70
2021/04/21 09:23:35;;;;;;;24.40;15.07;;;14.20;99.90;;;;;;4448043;28;660009;-72
2021/04/21 09:26:24;;;;;;;27.00;14.23;;;14.20;99.90;;;;;;4425934;28;658769;-70
2021/04/21 09:29:11;;;;;;;29.17;16.15;;;14.30;99.90;;;;;;4444603;28;659086;-73
2021/04/21 09:32:08;;;;;;;23.60;12.90;;;14.80;99.90;;;;;;4409706;28;658533;-72
2021/04/21 09:34:55;;;;;;;21.40;11.93;;;14.80;99.90;;;;;;4417429;28;658932;-71
2021/04/21 09:37:42;;;;;;;21.45;12.35;;;14.50;99.90;;;;;;4415168;28;658818;-70
2021/04/21 09:40:41;;;;;;;18.38;10.13;;;14.30;99.90;;;;;;4448928;28;659377;-73
2021/04/21 09:43:30;;;;;;;19.00;10.88;;;14.40;99.90;;;;;;4394196;28;658212;-73
2021/04/21 09:46:17;;;;;;;21.10;11.93;;;14.40;99.90;;;;;;4447108;28;658754;-76
2021/04/21 09:49:04;;;;;;;19.30;11.50;;;14.40;99.90;;;;;;4428385;28;659665;-70
2021/04/21 09:51:51;;;;;;;16.30;10.30;;;14.60;99.90;;;;;;4448448;28;658436;-72
2021/04/21 09:54:41;;;;;;;16.80;10.90;;;14.70;99.90;;;;;;4417161;28;658702;-70
2021/04/21 09:57:31;;;;;;;12.60;8.03;;;14.90;99.90;;;;;;4429227;28;659055;-70
2021/04/21 10:00:20;;;;;;;15.55;8.55;;;15.30;99.90;;;;;;4427475;28;657373;-70
2021/04/21 10:03:15;;;;;;;13.70;7.60;;;15.70;99.90;;;;;;4425182;28;657509;-71
2021/04/21 10:06:02;;;;;;;15.77;9.10;;;15.40;99.90;;;;;;4398615;28;657931;-68
2021/04/21 10:08:49;;;;;;;14.07;9.37;;;15.10;99.90;;;;;;4447497;28;657479;-69
2021/04/21 10:11:36;;;;;;;13.87;9.20;;;15.30;99.90;;;;;;4448826;28;658925;-69
2021/04/21 10:14:24;;;;;;;10.97;7.20;;;15.90;99.90;;;;;;4429456;28;658178;-73
2021/04/21 10:17:12;;;;;;;11.50;6.87;;;16.00;99.90;;;;;;4442982;28;658163;-69
2021/04/21 10:19:59;;;;;;;12.40;7.47;;;16.00;99.90;;;;;;4429437;28;658468;-67
2021/04/21 10:22:48;;;;;;;12.80;7.57;;;16.40;99.90;;;;;;4446356;28;658209;-67
2021/04/21 10:25:35;;;;;;;14.60;8.97;;;16.10;99.30;;;;;;4418256;28;659094;-73
2021/04/21 10:28:23;;;;;;;11.67;8.63;;;15.80;99.90;;;;;;4428704;28;657677;-70
2021/04/21 10:31:11;;;;;;;15.07;8.07;;;15.80;99.90;;;;;;4448325;28;658613;-74
2021/04/21 10:33:59;;;;;;;12.50;7.63;;;15.90;99.70;;;;;;4430032;28;657840;-73
2021/04/21 10:36:48;;;;;;;11.80;7.00;;;15.60;99.50;;;;;;4449160;28;657391;-72
2021/04/21 10:39:36;;;;;;;11.80;8.00;;;15.40;99.40;;;;;;4426663;28;657908;-72
2021/04/21 10:42:23;;;;;;;12.97;7.17;;;15.50;98.60;;;;;;4421489;28;657965;-72
2021/04/21 10:45:14;;;;;;;14.03;8.07;;;15.80;99.90;;;;;;4446916;28;657827;-72
2021/04/21 10:48:01;;;;;;;13.00;7.97;;;15.80;99.30;;;;;;4424155;28;657329;-72
2021/04/21 10:50:49;;;;;;;12.10;7.20;;;16.00;98.60;;;;;;4429529;28;657482;-72
2021/04/21 10:53:46;;;;;;;13.53;8.57;;;15.90;97.30;;;;;;4446749;28;657406;-73
2021/04/21 10:56:33;;;;;;;15.40;8.00;;;15.50;98.10;;;;;;4399032;28;657719;-73
2021/04/21 10:59:20;;;;;;;15.00;8.20;;;15.80;98.40;;;;;;4447604;28;658700;-74
2021/04/21 11:02:33;;;;;;;18.60;7.93;;;15.80;96.50;;;;;;4446833;28;657221;-68
2021/04/21 11:05:21;;;;;;;11.23;7.27;;;15.90;96.40;;;;;;4425570;28;657594;-68
2021/04/21 11:08:10;;;;;;;14.27;7.80;;;16.30;96.00;;;;;;4428881;28;657959;-68
2021/04/21 11:10:59;;;;;;;12.93;8.13;;;16.50;94.80;;;;;;4448931;28;657315;-71
2021/04/21 11:13:47;;;;;;;16.67;8.80;;;16.50;94.70;;;;;;4425385;28;657340;-73
2021/04/21 11:16:41;;;;;;;13.87;8.50;;;15.90;93.60;;;;;;4429804;28;658312;-74
2021/04/21 11:19:31;;;;;;;15.87;8.43;;;16.10;95.10;;;;;;4401355;28;658108;-70
2021/04/21 11:22:28;;;;;;;14.27;9.13;;;16.70;95.80;;;;;;4429778;28;657526;-71
2021/04/21 11:25:23;;;;;;;14.23;8.87;;;17.20;91.60;;;;;;4425334;28;657624;-67
2021/04/21 11:28:10;;;;;;;12.80;8.47;;;17.00;92.00;;;;;;4421876;28;658156;-67
2021/04/21 11:30:58;;;;;;;16.03;8.73;;;17.20;92.20;;;;;;4428539;28;657639;-67
2021/04/21 11:33:53;;;;;;;20.23;9.73;;;17.50;91.50;;;;;;4441186;28;658495;-67
2021/04/21 11:36:49;;;;;;;17.70;9.40;;;17.20;91.10;;;;;;4415403;28;658711;-67
2021/04/21 11:40:07;;;;;;;17.57;9.23;;;17.40;91.50;;;;;;4421411;28;657250;-67
2021/04/21 11:42:55;;;;;;;20.17;9.77;;;17.40;90.80;;;;;;4352116;28;658030;-67
2021/04/21 11:45:43;;;;;;;15.93;8.97;;;17.60;90.60;;;;;;4365824;28;658130;-67
2021/04/21 11:48:30;;;;;;;13.07;7.73;;;17.70;90.60;;;;;;4371901;28;658837;-67
2021/04/21 11:51:17;;;;;;;14.13;7.60;;;18.10;91.00;;;;;;4370623;28;657778;-67
2021/04/21 11:54:04;;;;;;;12.77;7.53;;;18.20;84.70;;;;;;4380869;28;658681;-67
2021/04/21 11:56:51;;;;;;;14.77;8.60;;;17.70;85.40;;;;;;4376480;28;657355;-67
2021/04/21 11:59:39;;;;;;;14.77;8.57;;;17.60;86.40;;;;;;4356615;28;657598;-67
2021/04/21 12:02:26;;;;;;;15.63;8.50;;;17.30;86.00;;;;;;4356968;28;658371;-68
2021/04/21 12:05:13;;;;;;;14.23;8.37;;;17.20;86.40;;;;;;4336425;28;657409;-67
2021/04/21 12:08:02;;;;;;;15.03;8.47;;;17.30;90.90;;;;;;4359799;28;658197;-67
2021/04/21 12:10:49;;;;;;;15.80;9.60;;;17.70;86.40;;;;;;4335728;28;658747;-68
2021/04/21 12:13:37;;;;;;;14.20;9.10;;;17.50;83.70;;;;;;4358718;28;657462;-67
2021/04/21 12:16:27;;;;;;;15.70;9.37;;;17.50;84.10;;;;;;4333993;28;658055;-67
2021/04/21 12:19:16;;;;;;;13.23;9.00;;;17.40;84.60;;;;;;4345939;28;658316;-67
2021/04/21 12:22:03;;;;;;;14.90;8.83;;;17.50;85.40;;;;;;4342737;28;658550;-67
2021/04/21 12:24:51;;;;;;;11.77;7.97;;;17.80;84.00;;;;;;4419007;28;657694;-67
2021/04/21 12:27:38;;;;;;;14.13;8.10;;;17.90;82.60;;;;;;4390264;28;657694;-67
2021/04/21 12:30:28;;;;;;;12.83;8.10;;;17.70;83.90;;;;;;4417080;28;658819;-67
2021/04/21 12:33:16;;;;;;;11.47;7.33;;;18.10;83.50;;;;;;4386705;28;658425;-67
2021/04/21 12:36:03;;;;;;;14.50;8.17;;;18.60;77.80;;;;;;4388407;28;657948;-67
2021/04/21 12:39:00;;;;;;;15.13;9.00;;;18.20;76.60;;;;;;4427458;28;658821;-67
2021/04/21 12:41:58;;;;;;;14.30;7.97;;;17.80;79.60;;;;;;4388462;28;658104;-67
2021/04/21 12:44:45;;;;;;;17.43;6.97;;;18.30;80.00;;;;;;4389020;28;658071;-68
2021/04/21 12:47:32;;;;;;;17.63;7.70;;;18.50;75.80;;;;;;4390724;28;657725;-67
2021/04/21 12:50:30;;;;;;;13.00;8.00;;;18.30;75.80;;;;;;4416183;28;659134;-67
2021/04/21 12:53:19;;;;;;;13.67;7.63;;;17.90;75.40;;;;;;4369353;28;657272;-67
2021/04/21 12:56:07;;;;;;;12.07;7.70;;;18.00;76.10;;;;;;4409887;28;657553;-67
2021/04/21 12:58:54;;;;;;;16.03;7.90;;;17.70;76.90;;;;;;4394453;28;658913;-68
2021/04/21 13:01:41;;;;;;;12.87;7.50;;;16.90;72.60;;;;;;4425225;28;657534;-67
2021/04/21 13:04:36;;;;;;;15.60;7.37;;;16.40;74.60;;;;;;4424903;28;657562;-67
2021/04/21 13:07:23;;;;;;;16.87;6.80;;;15.90;75.30;;;;;;4387307;28;657476;-67
2021/04/21 13:10:12;;;;;;;14.57;6.93;;;15.70;77.80;;;;;;4445022;28;658237;-67
2021/04/21 13:13:01;;;;;;;10.70;6.60;;;15.50;79.00;;;;;;4427430;28;657844;-73
2021/04/21 13:15:48;;;;;;;15.47;8.40;;;14.70;87.40;;;;;;4419783;28;657773;-71
2021/04/21 13:18:37;;;;;;;15.27;8.70;;;13.90;91.60;;;;;;4435906;28;658260;-73
2021/04/21 13:21:24;;;;;;;13.03;8.67;;;13.50;94.90;;;;;;4419871;28;659258;-72
2021/04/21 13:24:13;;;;;;;15.93;9.30;;;13.20;98.00;;;;;;4448907;28;657688;-71
2021/04/21 13:27:00;;;;;;;15.47;9.03;;;13.00;99.30;;;;;;4425729;28;658012;-71
2021/04/21 13:29:59;;;;;;;14.83;9.07;;;12.80;99.90;;;;;;4441878;28;658377;-70
2021/04/21 13:32:47;;;;;;;14.77;8.60;;;12.50;99.90;;;;;;4408160;28;657546;-73
2021/04/21 13:35:34;;;;;;;14.77;8.43;;;12.40;99.90;;;;;;4425747;28;658071;-73
2021/04/21 13:38:21;;;;;;;9.53;6.97;;;12.10;99.90;;;;;;4448303;28;658022;-72
2021/04/21 13:41:09;;;;;;;10.13;7.33;;;12.00;99.90;;;;;;4430690;28;657304;-73
2021/04/21 13:43:56;;;;;;;37.60;16.45;;;12.20;99.90;;;;;;4442741;28;657579;-73
2021/04/21 13:46:43;;;;;;;14.83;10.60;;;12.60;99.90;;;;;;4422156;28;659160;-73
2021/04/21 13:49:30;;;;;;;15.90;8.13;;;13.30;99.90;;;;;;4451176;28;659354;-72
2021/04/21 13:52:17;;;;;;;22.90;11.03;;;13.80;99.90;;;;;;4425223;28;657741;-70
2021/04/21 13:55:05;;;;;;;22.90;10.27;;;13.90;99.90;;;;;;4450598;28;659242;-73
2021/04/21 13:57:53;;;;;;;12.60;7.47;;;13.90;99.90;;;;;;4428856;28;658736;-70
2021/04/21 14:00:40;;;;;;;10.03;6.37;;;13.90;99.90;;;;;;4448827;28;658435;-73
2021/04/21 14:03:27;;;;;;;10.37;6.60;;;13.90;99.90;;;;;;4429165;28;658111;-70
2021/04/21 14:06:14;;;;;;;12.73;6.77;;;13.80;99.90;;;;;;4441539;28;658038;-72
2021/04/21 14:09:01;;;;;;;12.53;6.50;;;13.70;99.90;;;;;;4441730;28;657809;-74
2021/04/21 14:11:48;;;;;;;12.83;6.93;;;13.60;99.90;;;;;;4428846;28;658034;-72
2021/04/21 14:14:36;;;;;;;15.20;7.63;;;13.20;99.90;;;;;;4444905;28;658235;-70
2021/04/21 14:17:23;;;;;;;11.00;6.57;;;12.70;99.90;;;;;;4423447;28;657992;-72
2021/04/21 14:20:11;;;;;;;14.87;7.03;;;12.20;99.90;;;;;;4452827;28;658490;-67
2021/04/21 14:22:58;;;;;;;13.07;8.00;;;11.60;99.90;;;;;;4426792;28;657424;-67
2021/04/21 14:25:46;;;;;;;16.10;7.87;;;11.30;99.90;;;;;;4448123;28;658912;-67